Long Beach Township, New Jersey
Current Conditions -  °F | °C
As of 12:55 AM on Thursday 23 Oct 2014 (Local Time) from KMJX Reporting Station
Overcast Overcast  
Wind Chill: 50°   Ceiling: 2100
Heat Index: 50°   Visibility: 10mi
Dew Point: 48°   Wind: 9mph
Humidity: 94%   Direction: 340°NNW
Pressure: 29.7"   Gusts: NA
Location:  39.623°N, 74.1974°W
Report Text: KMJX 230455Z AUTO 34008KT 10SM FEW013 BKN021 OVC025 10/09 A2970 RMK AO1
Loading
Personal Weather Stations






























Interactive Weather Map
Tropical Storm Tracking
New forecast layout! Learn more

10-Day Weather Forecast

Advertisements
Track Severe Weather on mobile